Terminal Aerodrome Forecast
Issued by NWS Los Angeles, CA

Home | Current Version | Previous Version | Text Only | Print | Product List | Glossary On
Versions: 1 2 3 4 5 6 7 8 9 10 11 12 13 14 15 16 17 18 19 20 21 22 23
000
FTUS46 KLOX 272340
TAFSMX
TAF
KSMX 272340Z 2800/2824 29022G30KT P6SM BKN200
     FM280300 30015KT P6SM SCT200
     FM280500 30008KT P6SM SKC
     FM281200 32011KT P6SM SKC
     FM281700 31020G28KT P6SM SKC
     FM282100 31025G33KT P6SM SKC=

USA.gov is the U.S. government's official web portal to all federal, state and local government web resources and services.